Time;durP1;ratioP1;P1;durP2;ratioP2;P2;SDS_P1;SDS_P2;PMS_P1;PMS_P2;Temp;Humidity;BMP_temperature;BMP_pressure;BME280_temperature;BME280_humidity;BME280_pressure;Samples;Min_cycle;Max_cycle;Signal;HPM_P1;HPM_P2
2021/08/28 00:04:37;;;;;;;3.77;3.37;;;17.40;99.90;;;;;;10457460;28;20328;-82
2021/08/28 00:09:39;;;;;;;3.00;2.80;;;17.40;99.90;;;;;;10421745;28;20189;-81
2021/08/28 00:14:42;;;;;;;3.47;3.17;;;17.40;99.90;;;;;;10455803;28;20295;-82
2021/08/28 00:19:45;;;;;;;4.30;3.67;;;17.40;99.90;;;;;;10436380;28;20695;-82
2021/08/28 00:24:47;;;;;;;3.63;3.30;;;17.40;99.90;;;;;;10437667;28;20507;-82
2021/08/28 00:29:50;;;;;;;4.10;3.20;;;17.40;99.90;;;;;;10437948;28;20204;-82
2021/08/28 00:34:53;;;;;;;3.50;3.20;;;17.40;99.90;;;;;;10421046;28;20680;-82
2021/08/28 00:39:55;;;;;;;2.83;2.73;;;17.40;99.90;;;;;;10439097;28;20239;-82
2021/08/28 00:44:59;;;;;;;3.23;2.93;;;17.40;99.90;;;;;;10420508;28;20213;-82
2021/08/28 00:50:02;;;;;;;4.00;3.17;;;17.40;99.90;;;;;;10405145;28;20256;-82
2021/08/28 00:55:05;;;;;;;3.17;2.97;;;17.40;99.90;;;;;;10438968;28;20219;-82
2021/08/28 01:00:10;;;;;;;5.40;3.07;;;17.40;99.90;;;;;;10436237;28;20227;-81
2021/08/28 01:05:19;;;;;;;3.53;3.33;;;17.30;99.90;;;;;;10420934;28;20776;-82
2021/08/28 01:10:35;;;;;;;4.33;2.90;;;17.30;99.90;;;;;;10440835;28;20189;-82
2021/08/28 01:16:07;;;;;;;3.23;2.93;;;17.30;99.90;;;;;;10350864;28;20576;-82
2021/08/28 01:21:23;;;;;;;3.77;2.80;;;17.30;99.90;;;;;;10340926;28;20254;-82
2021/08/28 01:26:49;;;;;;;2.83;2.57;;;17.30;99.90;;;;;;10329831;28;20209;-82
2021/08/28 01:31:55;;;;;;;2.73;2.53;;;17.30;99.90;;;;;;10397907;28;20206;-82
2021/08/28 01:36:58;;;;;;;3.30;3.00;;;17.30;99.90;;;;;;10382340;28;20240;-82
2021/08/28 01:42:33;;;;;;;3.33;3.00;;;17.30;99.90;;;;;;10393790;28;20288;-82
2021/08/28 01:47:38;;;;;;;3.33;3.13;;;17.30;99.90;;;;;;10461827;28;20224;-82
2021/08/28 01:52:41;;;;;;;3.00;2.80;;;17.30;99.90;;;;;;10355994;28;20196;-81
2021/08/28 01:57:43;;;;;;;3.63;3.33;;;17.30;99.90;;;;;;10345888;28;20795;-82
2021/08/28 02:03:05;;;;;;;4.37;3.50;;;17.20;99.90;;;;;;10296203;28;20577;-82
2021/08/28 02:08:16;;;;;;;4.00;3.70;;;17.20;99.90;;;;;;10345425;28;20318;-82
2021/08/28 02:13:25;;;;;;;4.47;4.10;;;17.20;99.90;;;;;;10472510;28;20196;-81
2021/08/28 02:18:35;;;;;;;4.40;4.00;;;17.20;99.90;;;;;;10409753;28;20257;-81
2021/08/28 02:23:49;;;;;;;4.70;4.23;;;17.20;99.90;;;;;;10391817;28;20221;-82
2021/08/28 02:29:01;;;;;;;5.30;4.73;;;17.20;99.90;;;;;;10395771;28;20662;-81
2021/08/28 02:34:05;;;;;;;4.70;4.30;;;17.20;99.90;;;;;;10410303;28;20241;-82
2021/08/28 02:39:09;;;;;;;5.37;4.77;;;17.20;99.90;;;;;;10392437;28;20225;-82
2021/08/28 02:44:15;;;;;;;6.23;5.57;;;17.20;99.90;;;;;;10401217;28;20228;-82
2021/08/28 02:49:21;;;;;;;7.27;6.30;;;17.20;99.90;;;;;;10370942;28;20279;-82
2021/08/28 02:54:28;;;;;;;6.90;6.30;;;17.10;99.90;;;;;;10495833;28;20307;-82
2021/08/28 02:59:32;;;;;;;8.20;7.50;;;17.10;99.90;;;;;;10481982;28;20306;-82
2021/08/28 03:04:38;;;;;;;9.00;8.30;;;17.10;99.90;;;;;;10480424;28;20281;-82
2021/08/28 03:09:41;;;;;;;7.90;7.27;;;17.10;99.90;;;;;;10481404;28;20246;-82
2021/08/28 03:14:43;;;;;;;9.23;8.43;;;17.10;99.90;;;;;;10367173;28;20224;-82
2021/08/28 03:19:48;;;;;;;10.30;9.40;;;17.00;99.90;;;;;;10458520;28;20236;-82
2021/08/28 03:24:54;;;;;;;10.73;9.80;;;17.00;99.90;;;;;;10440388;28;20221;-82
2021/08/28 03:30:07;;;;;;;11.77;10.70;;;17.00;99.90;;;;;;10440209;28;20201;-82
2021/08/28 03:35:15;;;;;;;11.50;10.60;;;17.00;99.90;;;;;;10423206;28;20245;-81
2021/08/28 03:40:19;;;;;;;11.70;10.67;;;17.00;99.90;;;;;;10440305;28;20199;-81
2021/08/28 03:45:27;;;;;;;12.67;11.47;;;17.00;99.90;;;;;;10409262;28;20230;-81
2021/08/28 03:50:31;;;;;;;13.17;12.07;;;17.00;99.90;;;;;;10397660;28;20198;-81
2021/08/28 03:55:37;;;;;;;12.63;11.53;;;17.00;99.90;;;;;;10397260;28;20253;-82
2021/08/28 04:00:40;;;;;;;12.73;11.67;;;17.00;99.90;;;;;;10400204;28;20291;-81
2021/08/28 04:05:43;;;;;;;11.90;10.90;;;17.00;99.90;;;;;;10399908;28;20222;-81
2021/08/28 04:10:49;;;;;;;14.43;13.03;;;16.90;99.90;;;;;;10333295;28;20669;-81
2021/08/28 04:15:57;;;;;;;14.53;13.40;;;16.90;99.90;;;;;;10415866;28;20262;-81
2021/08/28 04:21:24;;;;;;;14.27;13.07;;;16.90;99.90;;;;;;10447294;28;20243;-82
2021/08/28 04:26:26;;;;;;;15.60;14.40;;;16.90;99.90;;;;;;10437447;28;20217;-81
2021/08/28 04:31:28;;;;;;;15.33;13.93;;;16.90;99.90;;;;;;10439480;28;20189;-82
2021/08/28 04:36:33;;;;;;;16.10;14.63;;;16.90;99.90;;;;;;10424549;28;20221;-82
2021/08/28 04:41:36;;;;;;;15.03;13.73;;;16.80;99.90;;;;;;10424455;28;20203;-82
2021/08/28 04:46:38;;;;;;;15.67;14.30;;;16.80;99.90;;;;;;10418140;28;20218;-82
2021/08/28 04:51:43;;;;;;;15.30;14.07;;;16.80;99.90;;;;;;10400944;28;20229;-82
2021/08/28 04:56:47;;;;;;;15.70;14.20;;;16.80;99.90;;;;;;10402043;28;20573;-82
2021/08/28 05:01:49;;;;;;;14.20;13.00;;;16.80;99.90;;;;;;10418535;28;20201;-82
2021/08/28 05:07:00;;;;;;;16.70;15.30;;;16.80;99.90;;;;;;10402719;28;20304;-82
2021/08/28 05:12:16;;;;;;;16.00;14.70;;;16.80;99.90;;;;;;10418659;28;20225;-82
2021/08/28 05:17:30;;;;;;;17.23;15.63;;;16.80;99.90;;;;;;10402961;28;20234;-82
2021/08/28 05:22:34;;;;;;;17.30;15.80;;;16.80;99.90;;;;;;10414673;28;20308;-82
2021/08/28 05:27:56;;;;;;;16.83;15.43;;;16.80;99.90;;;;;;10423934;28;20276;-82
2021/08/28 05:32:58;;;;;;;15.87;14.47;;;16.90;99.90;;;;;;10408718;28;20194;-82
2021/08/28 05:38:02;;;;;;;16.60;14.87;;;16.90;99.90;;;;;;10392818;28;20276;-82
2021/08/28 05:43:07;;;;;;;14.30;13.10;;;16.90;99.90;;;;;;10409370;28;20201;-82
2021/08/28 05:48:30;;;;;;;15.93;14.47;;;16.90;99.90;;;;;;10410295;28;20201;-82
2021/08/28 05:53:34;;;;;;;15.47;14.27;;;16.90;99.90;;;;;;10451207;28;20280;-82
2021/08/28 05:58:37;;;;;;;15.10;13.80;;;16.90;99.90;;;;;;10435612;28;20229;-82
2021/08/28 06:03:39;;;;;;;13.97;12.87;;;17.00;99.90;;;;;;10460867;28;20275;-83
2021/08/28 06:08:53;;;;;;;13.07;12.03;;;17.00;99.90;;;;;;10470224;28;20542;-82
2021/08/28 06:14:13;;;;;;;14.70;13.40;;;17.00;99.90;;;;;;10465908;28;20224;-82
2021/08/28 06:19:23;;;;;;;13.27;12.17;;;17.00;99.90;;;;;;10448938;28;20594;-82
2021/08/28 06:24:29;;;;;;;13.43;12.33;;;17.00;99.90;;;;;;10480568;28;20244;-82
2021/08/28 06:29:40;;;;;;;12.97;11.80;;;17.00;99.90;;;;;;10465106;28;20217;-82
2021/08/28 06:34:42;;;;;;;11.93;11.03;;;17.00;99.90;;;;;;10450484;28;20221;-82
2021/08/28 06:39:46;;;;;;;12.60;11.47;;;17.00;99.90;;;;;;10443987;28;20800;-82
2021/08/28 06:45:08;;;;;;;11.73;10.70;;;17.00;99.90;;;;;;10450396;28;20217;-82
2021/08/28 06:50:29;;;;;;;10.90;10.10;;;17.10;99.90;;;;;;10369031;28;20200;-82
2021/08/28 06:55:52;;;;;;;11.67;10.57;;;17.10;99.90;;;;;;10375747;28;20752;-83
2021/08/28 07:01:32;;;;;;;12.50;11.40;;;17.20;99.90;;;;;;10295083;28;20778;-82
2021/08/28 07:06:53;;;;;;;11.50;10.60;;;17.20;99.90;;;;;;10295247;28;20231;-83
2021/08/28 07:11:57;;;;;;;13.17;11.80;;;17.20;99.90;;;;;;10362811;28;20211;-83
2021/08/28 07:17:05;;;;;;;12.73;11.53;;;17.40;99.90;;;;;;10441237;28;20228;-83
2021/08/28 07:22:07;;;;;;;11.70;10.70;;;17.60;99.90;;;;;;10447025;28;20569;-83
2021/08/28 07:27:11;;;;;;;10.63;9.83;;;17.70;99.90;;;;;;10449269;28;20213;-82
2021/08/28 07:32:32;;;;;;;8.50;7.80;;;17.60;99.90;;;;;;10447872;28;20197;-82
2021/08/28 07:37:35;;;;;;;8.60;7.70;;;17.60;99.90;;;;;;10445344;28;20228;-83
2021/08/28 07:42:38;;;;;;;6.70;6.20;;;17.70;99.90;;;;;;10443447;28;20707;-83
2021/08/28 07:47:42;;;;;;;6.17;5.67;;;17.80;99.90;;;;;;10427299;28;20586;-83
2021/08/28 07:52:45;;;;;;;6.17;5.63;;;18.00;99.90;;;;;;10422962;28;20247;-82
2021/08/28 07:57:49;;;;;;;6.50;6.00;;;18.00;99.90;;;;;;10447188;28;20221;-82
2021/08/28 08:02:51;;;;;;;6.30;5.80;;;18.00;99.90;;;;;;10425040;28;20208;-82
2021/08/28 08:08:13;;;;;;;4.87;4.57;;;18.10;99.90;;;;;;10442843;28;20217;-82
2021/08/28 08:13:52;;;;;;;4.83;4.50;;;18.50;99.90;;;;;;10347453;28;20220;-82
2021/08/28 08:19:33;;;;;;;3.83;3.63;;;18.80;99.90;;;;;;10336833;28;20309;-82
2021/08/28 08:25:01;;;;;;;3.70;3.50;;;19.00;99.90;;;;;;10446390;28;20229;-82
2021/08/28 08:30:23;;;;;;;4.27;4.07;;;19.10;99.90;;;;;;10445537;28;20225;-83
2021/08/28 08:35:37;;;;;;;4.40;4.20;;;19.00;99.90;;;;;;10446761;28;20213;-82
2021/08/28 08:40:39;;;;;;;4.33;4.03;;;19.00;99.90;;;;;;10364204;28;20237;-83
2021/08/28 08:45:43;;;;;;;3.30;3.10;;;19.10;99.90;;;;;;10422742;28;20222;-82
2021/08/28 08:50:46;;;;;;;4.53;4.13;;;19.20;99.90;;;;;;10406759;28;20198;-82
2021/08/28 08:55:52;;;;;;;4.20;3.50;;;19.20;99.90;;;;;;10423249;28;20225;-82
2021/08/28 09:00:56;;;;;;;4.00;3.80;;;19.10;99.90;;;;;;10391977;28;20225;-83
2021/08/28 09:06:01;;;;;;;3.50;3.30;;;19.00;99.90;;;;;;10432353;28;20224;-82
2021/08/28 09:11:20;;;;;;;3.90;3.60;;;19.00;99.90;;;;;;10420377;28;20285;-82
2021/08/28 09:16:33;;;;;;;2.80;2.70;;;19.00;99.90;;;;;;10440269;28;20220;-83
2021/08/28 09:21:36;;;;;;;3.27;3.07;;;18.90;99.90;;;;;;10454878;28;20661;-82
2021/08/28 09:26:39;;;;;;;3.70;3.40;;;18.80;99.90;;;;;;10453928;28;20215;-83
2021/08/28 09:31:49;;;;;;;4.07;3.77;;;18.70;99.90;;;;;;10459191;28;20189;-82
2021/08/28 09:36:58;;;;;;;5.00;3.60;;;18.60;99.90;;;;;;10461572;28;20213;-82
2021/08/28 09:42:00;;;;;;;3.93;3.73;;;18.50;99.90;;;;;;10444745;28;20197;-83
2021/08/28 09:47:10;;;;;;;3.83;3.53;;;18.50;99.90;;;;;;10435417;28;20221;-82
2021/08/28 09:52:18;;;;;;;3.20;3.00;;;18.60;99.90;;;;;;10463260;28;20264;-82
2021/08/28 09:57:22;;;;;;;3.40;3.20;;;18.60;99.90;;;;;;10445592;28;20220;-82
2021/08/28 10:02:26;;;;;;;3.00;2.80;;;18.50;99.90;;;;;;10444068;28;20204;-83
2021/08/28 10:07:30;;;;;;;3.13;2.80;;;18.50;99.90;;;;;;10444694;28;20221;-82
2021/08/28 10:12:34;;;;;;;3.57;3.37;;;18.40;99.90;;;;;;10462192;28;20288;-82
2021/08/28 10:17:38;;;;;;;3.00;2.80;;;18.40;99.90;;;;;;10468967;28;20221;-82
2021/08/28 10:22:43;;;;;;;2.93;2.83;;;18.40;99.90;;;;;;10463229;28;20575;-82
2021/08/28 10:27:46;;;;;;;3.33;3.10;;;18.30;99.90;;;;;;10430367;28;20304;-82
2021/08/28 10:32:51;;;;;;;2.97;2.87;;;18.20;99.90;;;;;;10445895;28;20256;-82
2021/08/28 10:37:53;;;;;;;3.90;3.60;;;18.00;99.90;;;;;;10445085;28;20317;-82
2021/08/28 10:42:59;;;;;;;5.17;4.77;;;18.00;99.90;;;;;;10445283;28;20678;-82
2021/08/28 10:48:05;;;;;;;6.40;6.00;;;17.90;99.90;;;;;;10405045;28;20272;-82
2021/08/28 10:53:10;;;;;;;4.53;3.60;;;18.00;99.90;;;;;;10388140;28;20225;-83
2021/08/28 10:58:16;;;;;;;3.73;3.30;;;18.20;99.90;;;;;;10386521;28;20244;-82
2021/08/28 11:03:29;;;;;;;2.70;2.50;;;18.30;99.90;;;;;;10428474;28;20662;-82
2021/08/28 11:08:46;;;;;;;2.10;2.00;;;18.40;99.90;;;;;;10406380;28;20193;-82
2021/08/28 11:14:05;;;;;;;2.60;2.50;;;18.50;99.90;;;;;;10456455;28;20220;-82
2021/08/28 11:19:10;;;;;;;2.97;2.80;;;18.50;99.90;;;;;;10456605;28;20221;-82
2021/08/28 11:24:14;;;;;;;2.80;2.63;;;18.60;99.90;;;;;;10456295;28;20227;-82
2021/08/28 11:29:22;;;;;;;2.57;2.47;;;18.90;99.90;;;;;;10449613;28;20199;-83
2021/08/28 11:34:30;;;;;;;2.20;2.10;;;19.20;99.90;;;;;;10454409;28;20213;-83
2021/08/28 11:39:47;;;;;;;1.50;1.37;;;19.40;99.90;;;;;;10452367;28;20209;-82
2021/08/28 11:44:50;;;;;;;1.93;1.83;;;19.70;99.90;;;;;;10459051;28;20219;-83
2021/08/28 11:49:54;;;;;;;1.70;1.50;;;20.10;99.90;;;;;;10442615;28;20197;-82
2021/08/28 11:55:00;;;;;;;1.60;1.50;;;20.40;99.90;;;;;;10401668;28;20237;-82
2021/08/28 12:00:03;;;;;;;2.90;1.70;;;20.50;99.90;;;;;;10420220;28;20206;-82
2021/08/28 12:06:08;;;;;;;1.93;1.83;;;20.60;99.90;;;;;;10415335;22;20649;-83
2021/08/28 12:11:16;;;;;;;1.47;1.37;;;20.60;99.90;;;;;;10435440;28;20557;-83
2021/08/28 12:16:23;;;;;;;1.63;1.47;;;20.60;99.90;;;;;;10435960;28;20237;-83
2021/08/28 12:21:25;;;;;;;1.60;1.50;;;20.50;99.90;;;;;;10436443;28;20241;-82
2021/08/28 12:26:28;;;;;;;1.50;1.40;;;20.30;99.90;;;;;;10419871;28;20256;-84
2021/08/28 12:31:32;;;;;;;1.40;1.30;;;20.20;99.90;;;;;;10436240;28;20185;-83
2021/08/28 12:36:34;;;;;;;1.20;1.10;;;20.30;99.90;;;;;;10453064;28;20229;-84
2021/08/28 12:41:39;;;;;;;1.30;1.30;;;20.40;99.90;;;;;;10436024;28;20221;-84
2021/08/28 12:46:42;;;;;;;1.40;1.30;;;20.30;99.80;;;;;;10435740;28;20223;-83
2021/08/28 12:51:59;;;;;;;1.60;1.50;;;20.20;99.90;;;;;;10436844;28;20727;-84
2021/08/28 12:57:05;;;;;;;1.30;1.30;;;20.10;99.90;;;;;;10415677;28;20282;-84
2021/08/28 13:02:07;;;;;;;2.10;1.90;;;20.10;99.90;;;;;;10415240;28;20221;-84
2021/08/28 13:07:11;;;;;;;1.70;1.60;;;20.10;99.90;;;;;;10415853;28;20328;-84
2021/08/28 13:12:15;;;;;;;1.50;1.50;;;20.10;99.90;;;;;;10416098;28;20190;-85
2021/08/28 13:17:24;;;;;;;1.93;1.83;;;20.00;99.90;;;;;;10391464;28;20312;-84
2021/08/28 13:22:26;;;;;;;1.70;1.60;;;19.90;99.90;;;;;;10426794;28;20197;-83
2021/08/28 13:27:31;;;;;;;2.10;2.00;;;19.90;99.90;;;;;;10406015;28;20244;-83
2021/08/28 13:32:33;;;;;;;2.30;2.20;;;19.80;99.90;;;;;;10413252;28;20194;-83
2021/08/28 13:37:35;;;;;;;2.00;1.90;;;19.80;99.90;;;;;;10403559;28;20651;-83
2021/08/28 13:42:39;;;;;;;2.20;2.10;;;19.80;99.90;;;;;;10428482;28;20190;-84
2021/08/28 13:47:41;;;;;;;2.37;2.27;;;19.90;99.90;;;;;;10399097;28;20209;-84
2021/08/28 13:52:43;;;;;;;2.07;1.97;;;19.90;99.90;;;;;;10422582;28;20217;-84
2021/08/28 13:57:48;;;;;;;2.40;2.20;;;19.80;99.90;;;;;;10442940;28;20229;-84
2021/08/28 14:02:50;;;;;;;2.17;2.00;;;19.60;99.90;;;;;;10428362;28;20245;-83
2021/08/28 14:07:52;;;;;;;2.40;2.30;;;19.60;99.90;;;;;;10400143;28;20256;-82
2021/08/28 14:12:56;;;;;;;2.50;2.40;;;19.40;99.90;;;;;;10384083;28;20218;-82
2021/08/28 14:17:58;;;;;;;2.10;2.00;;;19.20;99.90;;;;;;10426325;28;20312;-83
2021/08/28 14:23:13;;;;;;;2.20;2.10;;;19.20;99.90;;;;;;10439875;28;20205;-83
2021/08/28 14:28:25;;;;;;;2.33;2.23;;;19.30;99.90;;;;;;10408597;28;20206;-83
2021/08/28 14:33:27;;;;;;;2.63;1.80;;;19.50;99.90;;;;;;10401915;28;20226;-83
2021/08/28 14:38:30;;;;;;;2.27;2.17;;;19.60;99.90;;;;;;10439783;28;20596;-83
2021/08/28 14:44:04;;;;;;;;;;;;;;;;;;;;;
2021/08/28 14:49:20;;;;;;;2.40;2.30;;;19.70;99.90;;;;;;10392627;28;20192;-84
2021/08/28 14:54:25;;;;;;;3.00;2.80;;;19.60;99.90;;;;;;10400275;28;20305;-84
2021/08/28 14:59:28;;;;;;;3.10;2.90;;;19.50;99.90;;;;;;10399980;28;20221;-83
2021/08/28 15:04:30;;;;;;;2.37;2.27;;;19.50;99.90;;;;;;10428941;28;20213;-84
2021/08/28 15:15:08;;;;;;;2.93;2.73;;;19.50;99.90;;;;;;10382968;28;20217;-84
2021/08/28 15:20:11;;;;;;;3.13;2.93;;;19.50;99.90;;;;;;10457779;28;20639;-84
2021/08/28 15:25:13;;;;;;;3.33;3.13;;;19.60;99.90;;;;;;10457272;28;20213;-83
2021/08/28 15:30:17;;;;;;;3.40;3.20;;;19.60;99.90;;;;;;10421651;28;20218;-83
2021/08/28 15:35:20;;;;;;;3.10;2.90;;;19.60;99.90;;;;;;10437340;28;20291;-83
2021/08/28 15:40:22;;;;;;;3.20;2.87;;;19.60;99.90;;;;;;10437834;28;20231;-83
2021/08/28 15:45:25;;;;;;;3.53;3.33;;;19.50;99.90;;;;;;10437003;28;20601;-83
2021/08/28 15:50:27;;;;;;;4.00;3.70;;;19.40;99.90;;;;;;10436822;28;20185;-83
2021/08/28 15:55:30;;;;;;;3.43;3.23;;;19.30;99.90;;;;;;10419988;28;20227;-82
2021/08/28 16:00:33;;;;;;;3.90;3.60;;;19.20;99.90;;;;;;10420417;28;20213;-84
2021/08/28 16:05:35;;;;;;;4.10;3.80;;;19.10;99.90;;;;;;10420942;28;20588;-82
2021/08/28 16:10:39;;;;;;;4.37;4.07;;;19.00;99.90;;;;;;10438081;28;20223;-83
2021/08/28 16:15:43;;;;;;;3.70;3.40;;;18.90;99.90;;;;;;10419714;28;20209;-82
2021/08/28 16:20:45;;;;;;;3.77;3.57;;;18.80;99.90;;;;;;10436716;28;20280;-82
2021/08/28 16:25:50;;;;;;;3.40;3.20;;;18.80;99.90;;;;;;10436797;28;20247;-83
2021/08/28 16:30:58;;;;;;;4.67;3.30;;;18.80;99.90;;;;;;10435340;28;20679;-82
2021/08/28 16:36:01;;;;;;;3.60;3.30;;;18.70;99.90;;;;;;10444610;28;20279;-83
2021/08/28 16:41:12;;;;;;;4.83;3.53;;;18.70;99.90;;;;;;10411664;28;20220;-84
2021/08/28 16:46:15;;;;;;;3.70;3.40;;;18.70;99.90;;;;;;10404883;28;20669;-83
2021/08/28 16:51:18;;;;;;;3.90;3.50;;;18.70;99.90;;;;;;10413941;28;20239;-84
2021/08/28 16:56:20;;;;;;;3.77;3.57;;;18.60;99.90;;;;;;10410898;28;20221;-83
2021/08/28 17:01:23;;;;;;;3.60;3.30;;;18.60;99.90;;;;;;10406987;28;20673;-85
2021/08/28 17:06:25;;;;;;;3.30;3.10;;;18.50;99.90;;;;;;10406187;28;20213;-83
2021/08/28 17:11:27;;;;;;;3.83;3.50;;;18.50;99.90;;;;;;10434968;28;20274;-84
2021/08/28 17:16:31;;;;;;;4.37;3.97;;;18.60;99.90;;;;;;10410161;28;20218;-83
2021/08/28 17:21:33;;;;;;;4.07;3.77;;;18.60;99.90;;;;;;10409402;28;20579;-84
2021/08/28 17:26:49;;;;;;;3.80;3.50;;;18.60;99.90;;;;;;10432411;28;20215;-83
2021/08/28 17:31:56;;;;;;;4.13;3.83;;;18.50;99.90;;;;;;10442327;28;20686;-83
2021/08/28 17:36:59;;;;;;;3.90;3.60;;;18.40;99.90;;;;;;10406464;28;20217;-85
2021/08/28 17:42:02;;;;;;;3.10;2.90;;;18.30;99.90;;;;;;10382534;28;20218;-83
2021/08/28 17:47:06;;;;;;;3.70;3.40;;;18.30;99.90;;;;;;10382906;28;20209;-83
2021/08/28 17:52:08;;;;;;;3.63;3.30;;;18.20;99.90;;;;;;10401291;28;20628;-84
2021/08/28 17:57:13;;;;;;;3.83;2.63;;;18.10;99.90;;;;;;10400891;28;20651;-83
2021/08/28 18:02:16;;;;;;;3.57;3.27;;;18.00;99.90;;;;;;10401672;28;20603;-83
2021/08/28 18:07:18;;;;;;;3.47;3.27;;;17.90;99.90;;;;;;10436986;22;20225;-85
2021/08/28 18:12:21;;;;;;;4.93;2.80;;;17.80;99.90;;;;;;10444767;28;20185;-84
2021/08/28 18:17:25;;;;;;;3.50;3.30;;;17.70;99.90;;;;;;10448684;28;20217;-85
2021/08/28 18:22:28;;;;;;;3.50;3.20;;;17.60;99.90;;;;;;10431520;28;20252;-85
2021/08/28 18:27:30;;;;;;;3.97;3.57;;;17.60;99.90;;;;;;10427288;28;20221;-84
2021/08/28 18:32:34;;;;;;;4.23;3.90;;;17.50;99.90;;;;;;10444838;28;20197;-85
2021/08/28 18:37:37;;;;;;;4.70;4.33;;;17.40;99.90;;;;;;10431187;28;20275;-83
2021/08/28 18:42:39;;;;;;;18.57;16.83;;;17.30;99.90;;;;;;10428188;28;20221;-84
2021/08/28 18:47:42;;;;;;;8.80;8.00;;;17.20;99.90;;;;;;10468158;28;20285;-85
2021/08/28 18:52:44;;;;;;;6.37;5.73;;;17.10;99.90;;;;;;10449158;28;20186;-84
2021/08/28 18:57:47;;;;;;;6.27;5.77;;;17.00;99.90;;;;;;10431819;28;20221;-84
2021/08/28 19:02:50;;;;;;;19.70;17.63;;;17.00;99.90;;;;;;10449320;28;20312;-84
2021/08/28 19:07:52;;;;;;;17.53;15.70;;;16.90;99.90;;;;;;10466664;28;20225;-84
2021/08/28 19:12:54;;;;;;;9.70;8.87;;;16.80;99.90;;;;;;10442188;28;20186;-83
2021/08/28 19:17:58;;;;;;;7.40;6.80;;;16.70;99.90;;;;;;10425531;28;20260;-85
2021/08/28 19:23:00;;;;;;;6.60;3.97;;;16.50;99.90;;;;;;10425034;28;20595;-83
2021/08/28 19:28:02;;;;;;;4.33;4.03;;;16.40;99.90;;;;;;10427466;28;20220;-83
2021/08/28 19:33:06;;;;;;;6.43;5.93;;;16.30;99.90;;;;;;10445132;28;20700;-82
2021/08/28 19:38:08;;;;;;;5.00;4.70;;;16.20;99.90;;;;;;10443152;28;20240;-84
2021/08/28 19:43:10;;;;;;;4.10;3.90;;;16.20;99.90;;;;;;10459304;28;20672;-83
2021/08/28 19:48:13;;;;;;;3.77;3.57;;;16.10;99.90;;;;;;10437641;28;20229;-83
2021/08/28 19:53:15;;;;;;;3.60;3.40;;;16.10;99.90;;;;;;10454282;28;20224;-83
2021/08/28 19:58:17;;;;;;;4.90;4.60;;;16.00;99.90;;;;;;10436596;28;20320;-84
2021/08/28 20:03:21;;;;;;;4.20;3.90;;;16.00;99.90;;;;;;10436794;28;20646;-84
2021/08/28 20:08:23;;;;;;;4.63;4.30;;;16.00;99.90;;;;;;10455353;28;20625;-84
2021/08/28 20:13:25;;;;;;;3.97;3.77;;;16.10;99.90;;;;;;10421351;28;20197;-83
2021/08/28 20:18:29;;;;;;;4.53;4.23;;;16.10;99.90;;;;;;10421693;28;20693;-83
2021/08/28 20:23:31;;;;;;;3.70;3.50;;;16.00;99.90;;;;;;10401739;28;20190;-84
2021/08/28 20:28:33;;;;;;;3.83;3.53;;;16.00;99.90;;;;;;10380112;28;20218;-85
2021/08/28 20:33:37;;;;;;;4.20;3.80;;;16.00;99.90;;;;;;10383335;28;20193;-84
2021/08/28 20:38:39;;;;;;;3.17;3.00;;;16.10;99.90;;;;;;10413995;28;20608;-84
2021/08/28 20:43:41;;;;;;;4.00;3.60;;;16.10;99.90;;;;;;10380774;28;20572;-83
2021/08/28 20:48:45;;;;;;;5.10;4.70;;;16.10;99.90;;;;;;10417134;28;20221;-85
2021/08/28 20:53:47;;;;;;;5.27;4.53;;;16.10;99.90;;;;;;10447158;28;20232;-85
2021/08/28 20:58:49;;;;;;;6.37;5.87;;;16.10;99.90;;;;;;10427776;28;20213;-85
2021/08/28 21:03:52;;;;;;;4.80;4.40;;;16.10;99.90;;;;;;10440436;28;20203;-83
2021/08/28 21:08:54;;;;;;;7.30;6.80;;;16.10;99.90;;;;;;10432117;28;20231;-83
2021/08/28 21:13:56;;;;;;;4.00;3.70;;;16.10;99.90;;;;;;10452664;28;20203;-83
2021/08/28 21:19:00;;;;;;;7.83;7.13;;;16.00;99.90;;;;;;10425862;28;20308;-84
2021/08/28 21:24:02;;;;;;;3.97;3.77;;;16.00;99.90;;;;;;10409312;28;20198;-85
2021/08/28 21:29:05;;;;;;;3.83;3.60;;;16.10;99.90;;;;;;10415156;28;20209;-83
2021/08/28 21:34:09;;;;;;;4.63;4.20;;;16.10;99.90;;;;;;10394903;28;20202;-83
2021/08/28 21:39:11;;;;;;;3.63;3.43;;;16.20;99.90;;;;;;10414959;28;20232;-84
2021/08/28 21:44:13;;;;;;;4.77;4.37;;;16.20;99.90;;;;;;10408220;28;20347;-84
2021/08/28 21:49:17;;;;;;;4.17;3.87;;;16.20;99.90;;;;;;10462072;28;20217;-84
2021/08/28 21:54:19;;;;;;;3.93;3.63;;;16.20;99.90;;;;;;10432092;28;20243;-84
2021/08/28 21:59:23;;;;;;;4.10;3.80;;;16.30;99.90;;;;;;10454572;28;20768;-84
2021/08/28 22:04:26;;;;;;;3.77;3.47;;;16.30;99.90;;;;;;10448269;28;20199;-83
2021/08/28 22:09:28;;;;;;;3.73;3.43;;;16.40;99.90;;;;;;10440766;28;20229;-83
2021/08/28 22:14:30;;;;;;;4.10;3.70;;;16.40;99.90;;;;;;10431472;28;20248;-83
2021/08/28 22:19:34;;;;;;;7.10;4.27;;;16.30;99.90;;;;;;10428577;28;20213;-83
2021/08/28 22:24:36;;;;;;;4.23;3.87;;;16.30;99.90;;;;;;10441710;28;20212;-84
2021/08/28 22:29:38;;;;;;;3.80;3.50;;;16.30;99.90;;;;;;10441463;28;20633;-83
2021/08/28 22:34:42;;;;;;;3.87;3.60;;;16.30;99.90;;;;;;10440779;28;20211;-84
2021/08/28 22:39:44;;;;;;;3.57;3.27;;;16.30;99.90;;;;;;10440509;28;20213;-83
2021/08/28 22:44:46;;;;;;;4.20;3.90;;;16.20;99.90;;;;;;10440616;28;20204;-85
2021/08/28 22:49:50;;;;;;;6.47;4.10;;;16.20;99.90;;;;;;10404898;28;20342;-85
2021/08/28 22:54:52;;;;;;;3.87;3.57;;;16.20;99.90;;;;;;10401886;28;20190;-83
2021/08/28 22:59:54;;;;;;;3.90;3.70;;;16.20;99.90;;;;;;10386016;28;20213;-83
2021/08/28 23:04:57;;;;;;;4.17;3.83;;;16.20;99.90;;;;;;10402620;28;20265;-83
2021/08/28 23:10:05;;;;;;;5.00;3.80;;;16.10;99.90;;;;;;10398972;28;20190;-83
2021/08/28 23:15:09;;;;;;;3.83;3.53;;;16.00;99.90;;;;;;10407493;28;20316;-84
2021/08/28 23:20:13;;;;;;;3.93;3.63;;;16.00;99.90;;;;;;10443156;28;20232;-83
2021/08/28 23:25:15;;;;;;;3.43;3.23;;;15.90;99.90;;;;;;10439055;28;20217;-83
2021/08/28 23:30:18;;;;;;;4.20;3.80;;;15.90;99.90;;;;;;10428942;28;20629;-83
2021/08/28 23:35:21;;;;;;;4.40;3.90;;;15.80;99.90;;;;;;10423122;28;20217;-84
2021/08/28 23:40:23;;;;;;;4.70;4.40;;;15.90;99.90;;;;;;10444632;28;20201;-83
2021/08/28 23:45:26;;;;;;;4.40;4.00;;;15.80;99.90;;;;;;10463131;28;20630;-84
2021/08/28 23:50:29;;;;;;;4.37;4.07;;;15.90;99.90;;;;;;10442265;28;20185;-84
2021/08/28 23:55:31;;;;;;;4.13;3.83;;;15.90;99.90;;;;;;10439168;28;20541;-83
